Time;durP1;ratioP1;P1;durP2;ratioP2;P2;SDS_P1;SDS_P2;PMS_P1;PMS_P2;Temp;Humidity;BMP_temperature;BMP_pressure;BME280_temperature;BME280_humidity;BME280_pressure;Samples;Min_cycle;Max_cycle;Signal;HPM_P1;HPM_P2
2023/07/18 00:01:24;;;;;;;0.00;0.00;;;;;;;18.42;62.27;102172.34;5090101;28;20044;-80
2023/07/18 00:03:50;;;;;;;0.52;0.52;;;;;;;18.34;63.06;102177.91;5088388;28;20447;-80
2023/07/18 00:06:18;;;;;;;0.00;0.00;;;;;;;18.35;62.23;102168.94;5090814;28;20107;-81
2023/07/18 00:08:44;;;;;;;0.30;0.30;;;;;;;18.34;62.14;102172.56;5089829;28;20024;-79
2023/07/18 00:11:10;;;;;;;0.10;0.10;;;;;;;18.32;62.53;102173.53;5092006;28;20513;-81
2023/07/18 00:13:36;;;;;;;0.10;0.10;;;;;;;18.30;62.57;102165.53;5089200;28;20032;-80
2023/07/18 00:16:03;;;;;;;0.10;0.10;;;;;;;18.27;62.99;102166.50;5091694;28;20015;-81
2023/07/18 00:18:30;;;;;;;0.00;0.00;;;;;;;18.26;62.70;102159.38;5093252;28;20043;-80
2023/07/18 00:20:56;;;;;;;0.10;0.10;;;;;;;18.26;62.23;102163.91;5088338;28;20460;-80
2023/07/18 00:23:22;;;;;;;0.10;0.10;;;;;;;18.24;62.55;102168.41;5089077;28;20039;-79
2023/07/18 00:25:48;;;;;;;0.10;0.10;;;;;;;18.24;62.68;102166.63;5091390;28;20076;-79
2023/07/18 00:28:14;;;;;;;0.10;0.10;;;;;;;18.24;62.41;102171.09;5088547;28;20032;-79
2023/07/18 00:30:42;;;;;;;0.10;0.10;;;;;;;18.23;62.56;102163.97;5091872;28;20504;-80
2023/07/18 00:33:08;;;;;;;0.10;0.10;;;;;;;18.18;62.45;102165.91;5088421;28;20489;-80
2023/07/18 00:35:34;;;;;;;0.00;0.00;;;;;;;18.17;62.62;102162.38;5085424;28;20024;-81
2023/07/18 00:38:01;;;;;;;0.10;0.10;;;;;;;18.13;63.03;102167.88;5087904;28;20028;-79
2023/07/18 00:40:27;;;;;;;0.08;0.08;;;;;;;18.08;63.16;102159.97;5089921;28;20053;-81
2023/07/18 00:42:53;;;;;;;0.10;0.10;;;;;;;18.05;62.90;102158.25;5088108;28;20087;-84
2023/07/18 00:45:19;;;;;;;0.10;0.10;;;;;;;17.98;63.26;102159.38;5091762;28;20028;-84
2023/07/18 00:47:46;;;;;;;0.10;0.10;;;;;;;17.94;63.39;102169.31;5093579;28;20054;-81
2023/07/18 00:50:17;;;;;;;0.10;0.10;;;;;;;17.93;63.38;102177.34;5095151;28;20099;-82
2023/07/18 00:52:48;;;;;;;0.00;0.00;;;;;;;17.89;63.67;102170.34;5093530;28;20535;-82
2023/07/18 00:55:15;;;;;;;0.10;0.10;;;;;;;17.86;63.75;102170.44;5097349;28;20040;-81
2023/07/18 00:57:43;;;;;;;0.00;0.00;;;;;;;17.88;63.38;102179.28;5099483;28;20082;-81
2023/07/18 01:00:11;;;;;;;0.00;0.00;;;;;;;17.84;63.83;102169.59;5098127;28;20118;-80
2023/07/18 01:02:40;;;;;;;0.10;0.10;;;;;;;17.83;63.51;102162.47;5099380;28;20085;-80
2023/07/18 01:05:08;;;;;;;0.00;0.00;;;;;;;17.79;63.54;102165.25;5100309;28;20024;-80
2023/07/18 01:07:35;;;;;;;0.20;0.20;;;;;;;17.78;63.45;102167.97;5095294;28;20103;-79
2023/07/18 01:13:00;;;;;;;1.33;0.52;;;;;;;17.74;63.82;102177.88;5078280;27;20169;-80
2023/07/18 01:15:30;;;;;;;0.00;0.00;;;;;;;17.71;63.64;102172.63;5070468;28;20029;-80
2023/07/18 01:17:56;;;;;;;0.00;0.00;;;;;;;17.70;63.48;102170.00;5069710;28;20039;-80
2023/07/18 01:20:27;;;;;;;0.10;0.10;;;;;;;17.70;63.57;102164.66;5073142;28;20032;-79
2023/07/18 01:22:55;;;;;;;0.08;0.08;;;;;;;17.68;63.32;102156.63;5074126;28;20036;-81
2023/07/18 01:25:21;;;;;;;0.10;0.10;;;;;;;17.64;63.84;102152.28;5071473;28;20048;-80
2023/07/18 01:27:49;;;;;;;0.10;0.10;;;;;;;17.63;63.74;102148.75;5073879;28;20043;-82
2023/07/18 01:30:17;;;;;;;0.10;0.10;;;;;;;17.63;63.43;102146.06;5069658;28;20179;-80
2023/07/18 01:32:44;;;;;;;0.10;0.10;;;;;;;17.62;63.69;102157.69;5069524;28;20027;-82
2023/07/18 01:35:10;;;;;;;0.00;0.00;;;;;;;17.59;63.65;102152.41;5069063;28;20068;-80
2023/07/18 01:37:38;;;;;;;0.00;0.00;;;;;;;17.56;63.94;102146.28;5070185;28;20048;-80
2023/07/18 01:40:08;;;;;;;0.10;0.10;;;;;;;17.56;63.63;102146.28;5069635;28;20035;-80
2023/07/18 01:42:34;;;;;;;0.00;0.00;;;;;;;17.54;63.21;102148.13;5069652;28;20032;-82
2023/07/18 01:45:02;;;;;;;0.10;0.10;;;;;;;17.51;63.09;102153.53;5073359;28;20039;-79
2023/07/18 01:47:31;;;;;;;0.00;0.00;;;;;;;17.51;63.31;102142.84;5072272;28;20037;-81
2023/07/18 01:49:58;;;;;;;0.00;0.00;;;;;;;17.51;63.34;102140.16;5069406;28;20032;-80
2023/07/18 01:52:27;;;;;;;0.00;0.00;;;;;;;17.51;63.43;102134.78;5069118;28;20031;-81
2023/07/18 01:54:58;;;;;;;0.00;0.00;;;;;;;17.49;63.62;102133.97;5077368;28;20409;-83
2023/07/18 01:57:25;;;;;;;0.20;0.20;;;;;;;17.49;63.45;102128.63;5076582;28;20026;-83
2023/07/18 01:59:52;;;;;;;0.00;0.00;;;;;;;17.49;63.41;102131.28;5085869;28;20028;-82
2023/07/18 02:02:18;;;;;;;0.30;0.30;;;;;;;17.47;63.63;102128.66;5079202;28;20032;-81
2023/07/18 02:04:44;;;;;;;0.10;0.10;;;;;;;17.45;63.64;102127.81;5082457;28;20040;-82
2023/07/18 02:07:10;;;;;;;0.10;0.10;;;;;;;17.43;63.79;102138.59;5091172;28;20107;-80
2023/07/18 02:09:37;;;;;;;0.10;0.10;;;;;;;17.41;63.38;102129.72;5090857;28;20516;-82
2023/07/18 02:12:03;;;;;;;0.10;0.10;;;;;;;17.39;63.93;102128.00;5082008;28;20036;-80
2023/07/18 02:14:30;;;;;;;0.50;0.50;;;;;;;17.34;64.42;102122.75;5082293;28;20505;-81
2023/07/18 02:16:56;;;;;;;0.10;0.10;;;;;;;17.32;64.36;102129.97;5082368;28;20082;-82
2023/07/18 02:19:24;;;;;;;0.00;0.00;;;;;;;17.31;64.15;102125.53;5068872;28;20029;-81
2023/07/18 02:21:50;;;;;;;0.73;0.73;;;;;;;17.28;64.22;102131.88;5070566;28;20047;-82
2023/07/18 02:24:16;;;;;;;0.10;0.10;;;;;;;17.27;64.02;102124.75;5070438;28;20050;-79
2023/07/18 02:26:42;;;;;;;0.70;0.70;;;;;;;17.26;64.32;102119.44;5077892;28;20020;-82
2023/07/18 02:29:08;;;;;;;0.10;0.10;;;;;;;17.26;64.22;102127.47;5070023;28;20020;-79
2023/07/18 02:31:34;;;;;;;0.10;0.10;;;;;;;17.23;64.08;102116.81;5053659;28;20021;-82
2023/07/18 02:34:00;;;;;;;0.10;0.10;;;;;;;17.20;64.21;102117.78;5052982;28;20039;-83
2023/07/18 02:36:28;;;;;;;0.00;0.00;;;;;;;17.17;64.11;102111.63;5056537;28;20111;-81
2023/07/18 02:38:54;;;;;;;0.10;0.10;;;;;;;17.14;64.39;102112.59;5056679;28;20462;-82
2023/07/18 02:41:20;;;;;;;0.10;0.10;;;;;;;17.11;64.17;102113.56;5057114;28;20059;-80
2023/07/18 02:43:46;;;;;;;0.00;0.00;;;;;;;17.09;64.24;102114.53;5054974;28;20025;-81
2023/07/18 02:46:12;;;;;;;0.38;0.38;;;;;;;17.05;64.21;102113.72;5057854;28;20043;-81
2023/07/18 02:48:39;;;;;;;0.10;0.10;;;;;;;17.03;64.25;102115.56;5056496;28;20486;-82
2023/07/18 02:51:05;;;;;;;0.10;0.10;;;;;;;17.01;64.31;102122.78;5054629;28;20017;-82
2023/07/18 02:53:32;;;;;;;0.10;0.10;;;;;;;16.99;64.25;102121.94;5058209;28;20037;-81
2023/07/18 02:55:58;;;;;;;0.10;0.10;;;;;;;16.97;64.49;102131.78;5056122;28;20029;-80
2023/07/18 02:58:24;;;;;;;0.05;0.05;;;;;;;16.95;64.58;102129.16;5055506;28;20041;-82
2023/07/18 03:00:51;;;;;;;0.00;0.00;;;;;;;16.93;64.26;102125.63;5054450;28;20051;-80
2023/07/18 03:03:18;;;;;;;0.20;0.20;;;;;;;16.92;64.56;102125.69;5056530;28;20063;-81
2023/07/18 03:05:44;;;;;;;0.10;0.10;;;;;;;16.86;64.67;102123.13;5054850;28;20112;-80
2023/07/18 03:08:10;;;;;;;0.10;0.10;;;;;;;16.84;64.41;102127.66;5054909;28;20039;-81
2023/07/18 03:10:38;;;;;;;0.10;0.10;;;;;;;16.80;64.38;102130.41;5055295;28;20060;-82
2023/07/18 03:13:04;;;;;;;0.10;0.10;;;;;;;16.80;64.47;102130.41;5055949;28;20114;-81
2023/07/18 03:15:30;;;;;;;0.20;0.20;;;;;;;16.76;64.54;102134.09;5061734;28;20028;-80
2023/07/18 03:17:56;;;;;;;0.10;0.10;;;;;;;16.77;64.40;102130.50;5054380;28;20028;-81
2023/07/18 03:20:24;;;;;;;0.75;0.75;;;;;;;16.76;64.76;102125.16;5054181;28;20059;-82
2023/07/18 03:22:53;;;;;;;0.10;0.10;;;;;;;16.79;64.29;102125.97;5055555;28;20055;-81
2023/07/18 03:25:20;;;;;;;0.00;0.00;;;;;;;16.77;64.66;102130.50;5050841;28;20107;-81
2023/07/18 03:27:47;;;;;;;0.10;0.10;;;;;;;16.73;64.12;102131.47;5053926;28;20504;-79
2023/07/18 03:30:13;;;;;;;0.08;0.08;;;;;;;16.73;64.30;102123.44;5051939;28;20029;-79
2023/07/18 03:32:40;;;;;;;0.10;0.10;;;;;;;16.75;63.99;102121.63;5053464;28;20456;-83
2023/07/18 03:35:09;;;;;;;0.10;0.10;;;;;;;16.74;64.33;102127.00;5048863;28;20048;-79
2023/07/18 03:37:35;;;;;;;0.10;0.10;;;;;;;16.73;64.11;102128.78;5054517;28;20546;-79
2023/07/18 03:40:06;;;;;;;0.10;0.10;;;;;;;16.72;64.70;102134.19;5054195;28;20071;-80
2023/07/18 03:42:33;;;;;;;0.50;0.50;;;;;;;16.70;64.35;102134.25;5054996;28;20163;-81
2023/07/18 03:44:59;;;;;;;0.03;0.03;;;;;;;16.66;64.71;102133.44;5053169;28;20159;-83
2023/07/18 03:47:26;;;;;;;1.85;0.80;;;;;;;16.62;65.29;102133.53;5050871;28;20071;-82
2023/07/18 03:49:52;;;;;;;0.10;0.10;;;;;;;16.62;64.68;102130.88;5052960;28;20039;-82
2023/07/18 03:52:18;;;;;;;0.10;0.10;;;;;;;16.59;65.05;102137.16;5053663;28;20036;-81
2023/07/18 03:54:45;;;;;;;0.10;0.10;;;;;;;16.60;64.89;102143.41;5052389;28;20040;-79
2023/07/18 03:57:12;;;;;;;0.10;0.10;;;;;;;16.58;65.10;102134.53;5053621;28;20033;-80
2023/07/18 03:59:38;;;;;;;0.25;0.25;;;;;;;16.53;65.36;102128.44;5052532;28;20075;-81
2023/07/18 04:02:05;;;;;;;0.10;0.10;;;;;;;16.49;64.90;102131.16;5052514;28;20048;-81
2023/07/18 04:04:31;;;;;;;0.10;0.10;;;;;;;16.45;65.43;102131.28;5052131;28;20029;-80
2023/07/18 04:06:57;;;;;;;0.20;0.20;;;;;;;16.44;64.90;102126.84;5052697;28;20068;-80
2023/07/18 04:09:23;;;;;;;0.10;0.10;;;;;;;16.41;65.26;102130.50;5054652;28;20083;-79
2023/07/18 04:11:50;;;;;;;0.10;0.10;;;;;;;16.41;65.41;102132.25;5053458;28;20028;-77
2023/07/18 04:14:16;;;;;;;0.20;0.20;;;;;;;16.39;65.09;102124.28;5053839;28;20033;-80
2023/07/18 04:16:42;;;;;;;0.00;0.00;;;;;;;16.39;65.56;102118.94;5055335;28;20108;-83
2023/07/18 04:19:08;;;;;;;0.10;0.10;;;;;;;16.39;65.75;102112.72;5051697;28;20039;-81
2023/07/18 04:21:35;;;;;;;0.10;0.10;;;;;;;16.39;65.37;102118.94;5052682;28;20032;-81
2023/07/18 04:24:01;;;;;;;0.10;0.10;;;;;;;16.39;65.76;102121.59;5054623;28;20044;-80
2023/07/18 04:26:27;;;;;;;0.10;0.10;;;;;;;16.38;65.67;102119.84;5054511;28;20025;-80
2023/07/18 04:28:53;;;;;;;0.10;0.10;;;;;;;16.39;65.76;102116.25;5052206;28;20039;-79
2023/07/18 04:31:19;;;;;;;0.10;0.10;;;;;;;16.42;65.37;102124.19;5051777;28;20079;-80
2023/07/18 04:33:46;;;;;;;0.10;0.10;;;;;;;16.46;65.61;102120.56;5055099;28;20043;-81
2023/07/18 04:36:13;;;;;;;0.08;0.08;;;;;;;16.49;65.56;102115.09;5053699;28;20048;-81
2023/07/18 04:38:39;;;;;;;0.10;0.10;;;;;;;16.50;65.44;102116.88;5054986;28;20125;-80
2023/07/18 04:41:05;;;;;;;0.00;0.00;;;;;;;16.54;65.44;102108.78;5053069;28;20510;-80
2023/07/18 04:43:31;;;;;;;0.03;0.03;;;;;;;16.54;65.65;102111.47;5050917;28;20079;-81
2023/07/18 04:45:57;;;;;;;0.10;0.10;;;;;;;16.59;65.43;102106.88;5053600;28;20029;-81
2023/07/18 04:48:23;;;;;;;0.10;0.10;;;;;;;16.62;65.19;102098.75;5052422;28;20066;-81
2023/07/18 04:50:58;;;;;;;0.10;0.10;;;;;;;16.68;65.58;102103.94;5050373;28;20040;-80
2023/07/18 04:53:27;;;;;;;0.10;0.10;;;;;;;16.67;65.29;102102.19;5053980;28;20038;-81
2023/07/18 04:55:55;;;;;;;0.10;0.10;;;;;;;16.68;65.53;102106.63;5052214;28;20508;-80
2023/07/18 04:58:23;;;;;;;0.35;0.35;;;;;;;16.70;65.44;102107.47;5052194;28;20021;-82
2023/07/18 05:00:50;;;;;;;0.10;0.10;;;;;;;16.72;65.27;102105.63;5050588;28;20029;-81
2023/07/18 05:03:16;;;;;;;0.40;0.40;;;;;;;16.77;65.43;102106.41;5051477;28;20511;-80
2023/07/18 05:05:43;;;;;;;0.00;0.00;;;;;;;16.84;65.54;102099.09;5050911;28;20491;-78
2023/07/18 05:08:09;;;;;;;0.10;0.10;;;;;;;16.90;65.48;102098.06;5049125;28;20025;-80
2023/07/18 05:10:39;;;;;;;0.10;0.10;;;;;;;16.95;65.57;102090.81;5047824;28;20111;-79
2023/07/18 05:13:05;;;;;;;0.00;0.00;;;;;;;16.97;65.97;102100.56;5052003;28;20404;-80
2023/07/18 05:15:31;;;;;;;0.10;0.10;;;;;;;17.09;65.51;102091.28;5049319;28;20240;-80
2023/07/18 05:17:57;;;;;;;0.10;0.10;;;;;;;17.13;65.39;102090.31;5049493;28;20568;-81
2023/07/18 05:20:23;;;;;;;0.00;0.00;;;;;;;17.21;65.37;102086.50;5047756;28;20053;-81
2023/07/18 05:22:52;;;;;;;0.10;0.10;;;;;;;17.26;65.33;102087.28;5052816;28;20036;-81
2023/07/18 05:25:18;;;;;;;0.10;0.10;;;;;;;17.28;65.47;102083.66;5051734;28;20029;-78
2023/07/18 05:27:44;;;;;;;0.22;0.22;;;;;;;17.34;65.27;102077.22;5053780;28;20079;-78
2023/07/18 05:30:14;;;;;;;0.03;0.03;;;;;;;17.38;65.03;102078.88;5050866;28;20033;-78
2023/07/18 05:32:40;;;;;;;0.10;0.10;;;;;;;17.37;65.09;102082.50;5054976;28;20028;-78
2023/07/18 05:35:10;;;;;;;0.10;0.10;;;;;;;17.37;65.25;102087.88;5051793;28;20033;-77
2023/07/18 05:37:37;;;;;;;0.10;0.10;;;;;;;17.36;65.73;102083.44;5049152;28;20032;-78
2023/07/18 05:40:04;;;;;;;0.10;0.10;;;;;;;17.42;65.63;102085.94;5045300;28;20064;-79
2023/07/18 05:42:30;;;;;;;0.52;0.52;;;;;;;17.44;65.37;102092.09;5048380;28;20017;-80
2023/07/18 05:44:56;;;;;;;0.00;0.00;;;;;;;17.48;65.61;102094.69;5047184;28;20075;-81
2023/07/18 05:47:22;;;;;;;0.82;0.77;;;;;;;17.50;65.86;102103.59;5050188;28;20044;-79
2023/07/18 05:49:49;;;;;;;0.10;0.10;;;;;;;17.56;66.42;102098.91;5051569;28;20037;-79
2023/07/18 05:52:15;;;;;;;0.10;0.10;;;;;;;17.64;65.90;102104.03;5055273;28;20051;-80
2023/07/18 05:54:41;;;;;;;0.00;0.00;;;;;;;17.68;66.02;102107.50;5071198;28;20033;-81
2023/07/18 05:57:07;;;;;;;0.20;0.20;;;;;;;17.70;65.93;102105.69;5052541;28;20029;-80
2023/07/18 05:59:34;;;;;;;0.32;0.32;;;;;;;17.79;66.13;102100.91;5050597;28;20063;-81
2023/07/18 06:02:02;;;;;;;0.10;0.10;;;;;;;17.86;65.97;102098.06;5054401;28;20115;-81
2023/07/18 06:04:29;;;;;;;0.00;0.00;;;;;;;17.89;66.66;102109.53;5051140;28;20036;-80
2023/07/18 06:06:55;;;;;;;0.10;0.10;;;;;;;17.96;65.58;102107.59;5053863;28;20029;-80
2023/07/18 06:09:21;;;;;;;1.48;1.38;;;;;;;17.94;66.47;102112.13;5053355;28;20029;-81
2023/07/18 06:11:48;;;;;;;0.10;0.10;;;;;;;18.01;65.65;102113.69;5056674;28;20481;-81
2023/07/18 06:14:14;;;;;;;0.20;0.20;;;;;;;18.04;66.26;102108.22;5050897;28;20044;-81
2023/07/18 06:16:40;;;;;;;0.00;0.00;;;;;;;18.10;66.40;102115.19;5056603;28;20060;-81
2023/07/18 06:19:06;;;;;;;0.40;0.40;;;;;;;18.10;66.75;102110.72;5066418;28;20474;-82
2023/07/18 06:21:32;;;;;;;0.20;0.20;;;;;;;18.14;66.73;102116.00;5046657;28;20025;-83
2023/07/18 06:23:58;;;;;;;2.30;1.75;;;;;;;18.14;67.09;102111.50;5054424;28;20024;-80
2023/07/18 06:26:24;;;;;;;0.03;0.03;;;;;;;18.13;67.17;102123.16;5059376;28;20017;-81
2023/07/18 06:28:51;;;;;;;4.03;2.15;;;;;;;18.11;67.37;102117.84;5058622;28;20049;-82
2023/07/18 06:31:18;;;;;;;0.10;0.10;;;;;;;18.21;67.23;102113.06;5058518;28;20016;-81
2023/07/18 06:33:45;;;;;;;0.28;0.28;;;;;;;18.32;66.84;102120.78;5056133;28;20112;-80
2023/07/18 06:36:12;;;;;;;0.10;0.10;;;;;;;18.39;66.66;102133.06;5056998;28;20108;-80
2023/07/18 06:38:38;;;;;;;0.10;0.10;;;;;;;18.48;66.20;102125.63;5058299;28;20024;-79
2023/07/18 06:41:22;;;;;;;0.10;0.10;;;;;;;18.62;66.10;102134.13;5056268;28;20021;-81
2023/07/18 06:43:48;;;;;;;0.85;0.85;;;;;;;18.77;66.32;102127.34;5058033;28;20037;-80
2023/07/18 06:46:15;;;;;;;0.10;0.10;;;;;;;18.91;66.07;102129.59;5057517;28;20025;-80
2023/07/18 06:48:41;;;;;;;0.20;0.20;;;;;;;19.01;65.88;102119.41;5053367;28;20064;-80
2023/07/18 06:51:08;;;;;;;0.45;0.30;;;;;;;19.02;65.73;102123.84;5048370;28;20024;-81
2023/07/18 06:53:34;;;;;;;0.55;0.55;;;;;;;19.11;65.44;102117.28;5056780;28;20046;-79
2023/07/18 06:56:00;;;;;;;0.10;0.10;;;;;;;19.11;65.73;102114.59;5056213;28;20025;-80
2023/07/18 06:58:26;;;;;;;0.22;0.22;;;;;;;19.13;65.01;102113.59;5056693;28;20410;-79
2023/07/18 07:00:52;;;;;;;0.13;0.13;;;;;;;19.11;65.41;102109.22;5056731;28;20067;-79
2023/07/18 07:03:19;;;;;;;0.10;0.10;;;;;;;19.20;65.28;102116.94;5057213;28;20036;-79
2023/07/18 07:05:45;;;;;;;0.10;0.10;;;;;;;19.20;65.15;102107.09;5058021;28;20475;-79
2023/07/18 07:08:12;;;;;;;0.00;0.00;;;;;;;19.24;65.35;102111.41;5057980;28;20032;-80
2023/07/18 07:10:39;;;;;;;0.00;0.00;;;;;;;19.23;64.97;102104.25;5056075;28;20033;-80
2023/07/18 07:13:06;;;;;;;0.10;0.10;;;;;;;19.27;64.83;102106.84;5056725;28;20025;-80
2023/07/18 07:15:33;;;;;;;1.00;0.73;;;;;;;19.30;65.20;102113.00;5056923;28;20124;-82
2023/07/18 07:18:00;;;;;;;0.10;0.10;;;;;;;19.35;65.36;102107.44;5056915;28;20025;-80
2023/07/18 07:20:28;;;;;;;0.50;0.50;;;;;;;19.34;65.92;102101.19;5056407;28;20051;-80
2023/07/18 07:22:55;;;;;;;0.25;0.25;;;;;;;19.43;65.80;102091.00;5056664;28;20051;-82
2023/07/18 07:25:22;;;;;;;0.10;0.10;;;;;;;19.49;65.62;102094.38;5055844;28;20425;-79
2023/07/18 07:27:48;;;;;;;0.73;0.43;;;;;;;19.62;65.59;102088.53;5057567;28;20387;-82
2023/07/18 07:30:15;;;;;;;0.03;0.03;;;;;;;19.73;65.96;102095.22;5055994;28;20036;-84
2023/07/18 07:32:43;;;;;;;0.05;0.05;;;;;;;19.85;65.21;102093.03;5056196;28;20497;-78
2023/07/18 07:35:10;;;;;;;0.40;0.30;;;;;;;19.91;64.70;102100.00;5055212;28;20048;-79
2023/07/18 07:37:36;;;;;;;0.25;0.25;;;;;;;19.96;64.81;102095.31;5055118;28;20517;-80
2023/07/18 07:40:09;;;;;;;3.80;2.00;;;;;;;20.08;64.44;102096.66;5052735;28;20120;-80
2023/07/18 07:42:39;;;;;;;0.22;0.22;;;;;;;20.14;64.29;102097.25;5055823;28;20025;-80
2023/07/18 07:45:06;;;;;;;0.10;0.10;;;;;;;20.19;63.94;102095.25;5055349;28;20541;-81
2023/07/18 07:47:33;;;;;;;0.10;0.10;;;;;;;20.30;64.03;102088.53;5056452;28;20025;-81
2023/07/18 07:50:00;;;;;;;0.50;0.50;;;;;;;20.40;63.91;102091.75;5055752;28;20029;-83
2023/07/18 07:52:27;;;;;;;0.32;0.32;;;;;;;20.57;63.43;102088.34;5055906;28;20431;-83
2023/07/18 07:54:53;;;;;;;0.35;0.35;;;;;;;20.68;63.08;102084.25;5056227;28;20080;-83
2023/07/18 07:57:19;;;;;;;0.10;0.10;;;;;;;20.85;62.91;102086.25;5057959;28;20028;-83
2023/07/18 07:59:45;;;;;;;0.38;0.38;;;;;;;20.99;62.46;102080.25;5056750;28;20483;-82
2023/07/18 08:02:13;;;;;;;0.40;0.40;;;;;;;21.08;61.83;102083.50;5055674;28;20034;-83
2023/07/18 08:04:41;;;;;;;0.10;0.10;;;;;;;21.17;61.74;102075.88;5052922;28;20040;-84
2023/07/18 08:07:08;;;;;;;0.55;0.55;;;;;;;21.17;61.27;102075.88;5050398;28;20032;-82
2023/07/18 08:09:37;;;;;;;0.00;0.00;;;;;;;21.24;61.45;102070.19;5052319;28;20036;-81
2023/07/18 08:12:04;;;;;;;0.15;0.15;;;;;;;21.29;61.06;102073.56;5055982;28;20032;-82
2023/07/18 08:14:31;;;;;;;0.10;0.10;;;;;;;21.37;61.00;102078.59;5060439;28;20040;-81
2023/07/18 08:16:58;;;;;;;1.85;1.65;;;;;;;21.43;60.80;102081.00;5051177;28;20108;-82
2023/07/18 08:19:24;;;;;;;0.57;0.57;;;;;;;21.46;60.46;102078.19;5054261;28;20052;-83
2023/07/18 08:21:51;;;;;;;0.28;0.28;;;;;;;21.56;60.81;102084.91;5053975;28;20561;-81
2023/07/18 08:24:17;;;;;;;0.22;0.22;;;;;;;21.58;59.14;102076.75;5049842;28;20048;-82
2023/07/18 08:26:43;;;;;;;0.40;0.40;;;;;;;21.62;59.36;102078.34;5062464;28;20074;-82
2023/07/18 08:29:09;;;;;;;0.10;0.10;;;;;;;21.69;59.68;102076.25;5054362;28;20041;-82
2023/07/18 08:31:35;;;;;;;0.10;0.10;;;;;;;21.74;59.55;102074.22;5053967;28;20479;-78
2023/07/18 08:34:02;;;;;;;0.10;0.10;;;;;;;21.77;59.05;102077.63;5050394;28;20170;-80
2023/07/18 08:36:29;;;;;;;0.10;0.10;;;;;;;21.82;58.98;102077.44;5047551;28;20021;-79
2023/07/18 08:38:55;;;;;;;0.10;0.10;;;;;;;21.81;58.87;102072.97;5047095;28;20029;-81
2023/07/18 08:41:22;;;;;;;0.90;0.90;;;;;;;21.88;59.11;102074.44;5047536;28;20033;-80
2023/07/18 08:43:49;;;;;;;0.20;0.20;;;;;;;21.94;58.99;102074.13;5049366;28;20411;-80
2023/07/18 08:46:16;;;;;;;0.20;0.20;;;;;;;22.08;58.52;102065.38;5052512;28;20027;-80
2023/07/18 08:48:44;;;;;;;0.10;0.10;;;;;;;22.21;58.27;102073.72;5052693;28;20029;-80
2023/07/18 08:51:12;;;;;;;0.10;0.10;;;;;;;22.30;57.64;102073.25;5052014;28;20437;-80
2023/07/18 08:53:40;;;;;;;1.65;1.33;;;;;;;22.40;57.19;102070.13;5042941;28;20499;-80
2023/07/18 08:56:10;;;;;;;0.50;0.50;;;;;;;22.39;56.54;102066.56;5051562;28;20021;-80
2023/07/18 08:58:37;;;;;;;0.50;0.50;;;;;;;22.46;56.41;102076.06;5052875;28;20140;-80
2023/07/18 09:01:08;;;;;;;0.10;0.10;;;;;;;22.46;56.47;102069.81;5052214;28;20107;-80
2023/07/18 09:03:35;;;;;;;0.10;0.10;;;;;;;22.56;56.33;102071.09;5054568;28;20634;-80
2023/07/18 09:06:03;;;;;;;0.10;0.10;;;;;;;22.65;56.04;102058.06;5058367;28;20025;-80
2023/07/18 09:08:42;;;;;;;0.20;0.20;;;;;;;22.72;55.38;102051.41;5068203;28;20024;-79
2023/07/18 09:11:11;;;;;;;0.15;0.15;;;;;;;22.78;55.29;102053.78;5056620;28;20039;-80
2023/07/18 09:13:38;;;;;;;0.10;0.10;;;;;;;22.84;55.01;102053.47;5053728;28;20071;-82
2023/07/18 09:16:21;;;;;;;0.30;0.30;;;;;;;23.08;54.79;102050.41;5054225;28;20075;-80
2023/07/18 09:18:53;;;;;;;0.13;0.13;;;;;;;23.08;54.34;102045.00;5053567;28;20033;-81
2023/07/18 09:21:21;;;;;;;0.10;0.10;;;;;;;23.18;54.55;102038.16;5043253;28;20029;-81
2023/07/18 09:23:48;;;;;;;1.15;0.82;;;;;;;23.17;53.57;102032.84;5052330;28;20094;-80
2023/07/18 09:26:18;;;;;;;0.15;0.15;;;;;;;23.21;53.98;102035.28;5053752;28;20449;-81
2023/07/18 09:28:46;;;;;;;0.22;0.22;;;;;;;23.30;54.06;102030.31;5054820;28;20389;-80
2023/07/18 09:31:20;;;;;;;0.10;0.10;;;;;;;23.39;53.55;102027.09;5052339;28;20053;-82
2023/07/18 09:33:47;;;;;;;0.10;0.10;;;;;;;23.47;53.73;102030.25;5054534;28;20033;-80
2023/07/18 09:36:16;;;;;;;0.10;0.10;;;;;;;23.48;53.33;102033.81;5054638;28;20445;-80
2023/07/18 09:38:45;;;;;;;0.20;0.20;;;;;;;23.49;52.70;102031.06;5054894;28;20036;-79
2023/07/18 09:41:12;;;;;;;0.10;0.10;;;;;;;23.46;52.53;102036.63;5055496;28;20024;-80
2023/07/18 09:43:40;;;;;;;0.85;0.85;;;;;;;23.54;53.14;102030.78;5056798;28;20111;-81
2023/07/18 09:46:10;;;;;;;0.45;0.40;;;;;;;23.68;52.98;102030.03;5054941;28;20348;-80
2023/07/18 09:48:37;;;;;;;0.10;0.10;;;;;;;23.84;52.92;102030.88;5055695;28;20098;-81
2023/07/18 09:51:09;;;;;;;0.88;0.80;;;;;;;23.93;50.09;102029.53;5053560;28;20065;-83
2023/07/18 09:53:37;;;;;;;0.13;0.13;;;;;;;24.01;51.05;102023.66;5056543;28;20029;-82
2023/07/18 09:56:07;;;;;;;0.38;0.38;;;;;;;24.12;51.11;102023.91;5056384;28;20035;-81
2023/07/18 09:58:39;;;;;;;0.10;0.10;;;;;;;24.20;49.90;102018.91;5056672;28;20025;-81
2023/07/18 10:01:08;;;;;;;2.22;1.00;;;;;;;24.32;49.78;102021.84;5053613;28;20636;-83
2023/07/18 10:03:37;;;;;;;0.10;0.10;;;;;;;24.42;48.39;102020.31;5057751;28;20067;-81
2023/07/18 10:06:09;;;;;;;0.00;0.00;;;;;;;24.49;48.02;102010.88;5056281;28;20048;-80
2023/07/18 10:08:37;;;;;;;0.10;0.10;;;;;;;24.64;48.84;102011.78;5056767;28;20024;-81
2023/07/18 10:11:04;;;;;;;0.10;0.10;;;;;;;24.79;48.51;102001.84;5055060;28;20406;-81
2023/07/18 10:13:39;;;;;;;0.13;0.13;;;;;;;24.90;48.09;101995.78;5055789;28;20060;-81
2023/07/18 10:18:51;;;;;;;0.20;0.20;;;;;;;25.27;47.81;101992.56;5111428;27;20379;-80
2023/07/18 10:21:34;;;;;;;0.10;0.10;;;;;;;25.42;46.96;101980.75;5093317;28;20027;-83
2023/07/18 10:27:00;;;;;;;0.00;0.00;;;;;;;25.49;46.80;101976.66;5031680;28;20457;-82
2023/07/18 10:29:31;;;;;;;0.43;0.43;;;;;;;25.43;45.17;101971.63;5031533;28;20053;-83
2023/07/18 10:31:59;;;;;;;0.10;0.10;;;;;;;25.40;45.15;101966.41;5033423;28;20041;-82
2023/07/18 10:34:26;;;;;;;0.10;0.10;;;;;;;25.51;45.67;101963.88;5031279;28;20037;-81
2023/07/18 10:37:01;;;;;;;0.20;0.20;;;;;;;25.67;46.09;101962.84;5030192;28;20061;-81
2023/07/18 10:39:46;;;;;;;0.47;0.47;;;;;;;25.63;45.08;101956.78;5029970;28;20108;-81
2023/07/18 10:42:30;;;;;;;0.20;0.20;;;;;;;25.58;44.55;101961.59;5034542;28;20060;-80
2023/07/18 10:45:06;;;;;;;2.17;1.25;;;;;;;25.53;44.50;101958.34;5031832;28;20025;-80
2023/07/18 10:47:35;;;;;;;0.15;0.15;;;;;;;25.69;45.70;101955.47;5031815;28;20053;-80
2023/07/18 10:50:04;;;;;;;0.00;0.00;;;;;;;25.69;43.61;101966.31;5031097;28;20557;-82
2023/07/18 10:52:30;;;;;;;0.20;0.20;;;;;;;25.73;43.05;101950.72;5032688;28;20087;-81
2023/07/18 10:57:33;;;;;;;0.10;0.10;;;;;;;25.90;43.84;101964.03;5066135;27;1242842;-78
2023/07/18 11:00:01;;;;;;;1.65;1.10;;;;;;;26.02;42.57;101965.06;5093897;28;20048;-81
2023/07/18 11:02:34;;;;;;;0.00;0.00;;;;;;;26.18;43.90;101964.03;5087466;28;20036;-80
2023/07/18 11:05:10;;;;;;;0.10;0.10;;;;;;;26.18;43.09;101955.88;5071915;28;20096;-79
2023/07/18 11:07:38;;;;;;;0.45;0.45;;;;;;;26.03;43.10;101953.19;5065924;28;20151;-79
2023/07/18 11:10:06;;;;;;;0.15;0.15;;;;;;;25.79;41.19;101948.44;5069814;28;20064;-80
2023/07/18 11:12:32;;;;;;;0.20;0.20;;;;;;;25.66;43.56;101950.28;5072454;28;20537;-82
2023/07/18 11:14:58;;;;;;;0.00;0.00;;;;;;;25.68;43.95;101942.88;5072191;28;20390;-81
2023/07/18 11:17:25;;;;;;;0.10;0.10;;;;;;;25.80;41.77;101935.75;5069096;28;20039;-82
2023/07/18 11:19:56;;;;;;;0.30;0.30;;;;;;;26.05;41.73;101934.94;5062792;28;20522;-82
2023/07/18 11:22:22;;;;;;;0.10;0.10;;;;;;;26.15;42.23;101936.09;5065192;28;20056;-83
2023/07/18 11:24:50;;;;;;;0.10;0.10;;;;;;;26.40;42.06;101933.53;5072154;28;20036;-81
2023/07/18 11:27:21;;;;;;;0.10;0.10;;;;;;;26.60;41.83;101923.94;5062977;28;20021;-82
2023/07/18 11:30:09;;;;;;;0.10;0.10;;;;;;;26.84;41.25;101925.94;5069725;28;20029;-79
2023/07/18 11:32:39;;;;;;;0.10;0.10;;;;;;;26.96;40.35;101922.31;5049271;28;20025;-82
2023/07/18 11:35:09;;;;;;;0.00;0.00;;;;;;;27.09;40.70;101912.28;5068783;28;20486;-81
2023/07/18 11:37:38;;;;;;;0.40;0.40;;;;;;;27.29;40.97;101908.09;5068071;28;20033;-83